sensor_id;sensor_type;location;lat;lon;timestamp;pressure;altitude;pressure_sealevel;temperature;humidity
5500;BME280;2772;42.700;23.304;2023-05-21T00:00:11;94910.91;;;16.76;100.00
5500;BME280;2772;42.700;23.304;2023-05-21T00:02:38;94908.56;;;16.75;100.00
5500;BME280;2772;42.700;23.304;2023-05-21T00:05:06;94897.44;;;16.76;100.00
5500;BME280;2772;42.700;23.304;2023-05-21T00:07:35;94907.84;;;16.78;100.00
5500;BME280;2772;42.700;23.304;2023-05-21T00:10:02;94908.47;;;16.71;100.00
5500;BME280;2772;42.700;23.304;2023-05-21T00:12:29;94903.34;;;16.66;100.00
5500;BME280;2772;42.700;23.304;2023-05-21T00:14:56;94901.38;;;16.63;100.00
5500;BME280;2772;42.700;23.304;2023-05-21T00:17:25;94899.63;;;16.55;100.00
5500;BME280;2772;42.700;23.304;2023-05-21T00:19:52;94907.97;;;16.50;100.00
5500;BME280;2772;42.700;23.304;2023-05-21T00:22:19;94906.22;;;16.42;100.00
5500;BME280;2772;42.700;23.304;2023-05-21T00:24:46;94906.13;;;16.39;100.00
5500;BME280;2772;42.700;23.304;2023-05-21T00:27:13;94905.25;;;16.35;100.00
5500;BME280;2772;42.700;23.304;2023-05-21T00:29:39;94902.91;;;16.33;100.00
5500;BME280;2772;42.700;23.304;2023-05-21T00:32:06;94892.78;;;16.27;100.00
5500;BME280;2772;42.700;23.304;2023-05-21T00:34:35;94884.97;;;16.22;100.00
5500;BME280;2772;42.700;23.304;2023-05-21T00:37:02;94885.56;;;16.15;100.00
5500;BME280;2772;42.700;23.304;2023-05-21T00:39:29;94889.09;;;16.04;100.00
5500;BME280;2772;42.700;23.304;2023-05-21T00:41:56;94882.97;;;15.88;100.00
5500;BME280;2772;42.700;23.304;2023-05-21T00:44:23;94878.53;;;15.95;100.00
5500;BME280;2772;42.700;23.304;2023-05-21T00:46:49;94875.25;;;15.86;100.00
5500;BME280;2772;42.700;23.304;2023-05-21T00:49:18;94870.88;;;15.81;100.00
5500;BME280;2772;42.700;23.304;2023-05-21T00:51:48;94870.03;;;15.77;100.00
5500;BME280;2772;42.700;23.304;2023-05-21T00:54:16;94877.13;;;15.85;100.00
5500;BME280;2772;42.700;23.304;2023-05-21T00:56:43;94874.56;;;15.89;100.00
5500;BME280;2772;42.700;23.304;2023-05-21T00:59:10;94867.94;;;15.86;100.00
5500;BME280;2772;42.700;23.304;2023-05-21T01:01:36;94870.28;;;15.88;100.00
5500;BME280;2772;42.700;23.304;2023-05-21T01:04:03;94868.03;;;15.90;100.00
5500;BME280;2772;42.700;23.304;2023-05-21T01:06:30;94863.53;;;15.94;100.00
5500;BME280;2772;42.700;23.304;2023-05-21T01:09:00;94869.69;;;15.95;100.00
5500;BME280;2772;42.700;23.304;2023-05-21T01:11:44;94861.63;;;15.95;100.00
5500;BME280;2772;42.700;23.304;2023-05-21T01:14:12;94865.00;;;15.92;100.00
5500;BME280;2772;42.700;23.304;2023-05-21T01:16:42;94869.59;;;15.91;100.00
5500;BME280;2772;42.700;23.304;2023-05-21T01:19:14;94861.97;;;15.93;100.00
5500;BME280;2772;42.700;23.304;2023-05-21T01:21:44;94863.88;;;15.93;100.00
5500;BME280;2772;42.700;23.304;2023-05-21T01:24:13;94865.72;;;15.88;100.00
5500;BME280;2772;42.700;23.304;2023-05-21T01:26:39;94865.59;;;15.85;100.00
5500;BME280;2772;42.700;23.304;2023-05-21T01:29:08;94860.34;;;15.88;100.00
5500;BME280;2772;42.700;23.304;2023-05-21T01:31:44;94861.81;;;15.86;100.00
5500;BME280;2772;42.700;23.304;2023-05-21T01:34:14;94859.88;;;15.86;100.00
5500;BME280;2772;42.700;23.304;2023-05-21T01:36:45;94862.69;;;15.90;100.00
5500;BME280;2772;42.700;23.304;2023-05-21T01:39:19;94857.22;;;15.86;100.00
5500;BME280;2772;42.700;23.304;2023-05-21T01:41:50;94856.00;;;15.84;100.00
5500;BME280;2772;42.700;23.304;2023-05-21T01:44:19;94860.25;;;15.85;100.00
5500;BME280;2772;42.700;23.304;2023-05-21T01:46:49;94867.00;;;15.79;100.00
5500;BME280;2772;42.700;23.304;2023-05-21T01:49:16;94856.16;;;15.75;100.00
5500;BME280;2772;42.700;23.304;2023-05-21T01:51:45;94863.84;;;15.77;100.00
5500;BME280;2772;42.700;23.304;2023-05-21T01:54:16;94869.69;;;15.79;100.00
5500;BME280;2772;42.700;23.304;2023-05-21T01:56:44;94872.34;;;15.79;100.00
5500;BME280;2772;42.700;23.304;2023-05-21T01:59:12;94863.59;;;15.66;100.00
5500;BME280;2772;42.700;23.304;2023-05-21T02:01:40;94868.28;;;15.69;100.00
5500;BME280;2772;42.700;23.304;2023-05-21T02:04:07;94857.44;;;15.66;100.00
5500;BME280;2772;42.700;23.304;2023-05-21T02:06:34;94867.19;;;15.58;100.00
5500;BME280;2772;42.700;23.304;2023-05-21T02:09:04;94858.72;;;15.56;100.00
5500;BME280;2772;42.700;23.304;2023-05-21T02:11:35;94861.16;;;15.61;100.00
5500;BME280;2772;42.700;23.304;2023-05-21T02:14:02;94853.06;;;15.46;100.00
5500;BME280;2772;42.700;23.304;2023-05-21T02:16:29;94850.50;;;15.37;100.00
5500;BME280;2772;42.700;23.304;2023-05-21T02:18:56;94843.13;;;15.46;100.00
5500;BME280;2772;42.700;23.304;2023-05-21T02:21:25;94845.59;;;15.39;100.00
5500;BME280;2772;42.700;23.304;2023-05-21T02:23:51;94850.72;;;15.44;100.00
5500;BME280;2772;42.700;23.304;2023-05-21T02:26:18;94854.19;;;15.45;100.00
5500;BME280;2772;42.700;23.304;2023-05-21T02:28:47;94850.72;;;15.44;100.00
5500;BME280;2772;42.700;23.304;2023-05-21T02:31:14;94851.50;;;15.45;100.00
5500;BME280;2772;42.700;23.304;2023-05-21T02:33:41;94835.41;;;15.45;100.00
5500;BME280;2772;42.700;23.304;2023-05-21T02:36:08;94843.81;;;15.43;100.00
5500;BME280;2772;42.700;23.304;2023-05-21T02:38:38;94846.03;;;15.41;100.00
5500;BME280;2772;42.700;23.304;2023-05-21T02:41:08;94845.34;;;15.44;100.00
5500;BME280;2772;42.700;23.304;2023-05-21T02:43:35;94841.13;;;15.43;100.00
5500;BME280;2772;42.700;23.304;2023-05-21T02:46:05;94833.16;;;15.35;100.00
5500;BME280;2772;42.700;23.304;2023-05-21T02:48:31;94836.31;;;15.37;100.00
5500;BME280;2772;42.700;23.304;2023-05-21T02:50:58;94825.25;;;15.38;100.00
5500;BME280;2772;42.700;23.304;2023-05-21T02:53:25;94833.50;;;15.33;100.00
5500;BME280;2772;42.700;23.304;2023-05-21T02:55:52;94830.75;;;15.30;100.00
5500;BME280;2772;42.700;23.304;2023-05-21T02:58:18;94832.84;;;15.09;100.00
5500;BME280;2772;42.700;23.304;2023-05-21T03:00:47;94833.22;;;14.95;100.00
5500;BME280;2772;42.700;23.304;2023-05-21T03:03:15;94825.97;;;14.84;100.00
5500;BME280;2772;42.700;23.304;2023-05-21T03:05:42;94840.44;;;14.67;100.00
5500;BME280;2772;42.700;23.304;2023-05-21T03:08:10;94835.88;;;14.56;100.00
5500;BME280;2772;42.700;23.304;2023-05-21T03:10:36;94838.13;;;14.42;100.00
5500;BME280;2772;42.700;23.304;2023-05-21T03:13:03;94837.00;;;14.55;100.00
5500;BME280;2772;42.700;23.304;2023-05-21T03:15:31;94835.31;;;14.62;100.00
5500;BME280;2772;42.700;23.304;2023-05-21T03:17:58;94840.31;;;14.64;100.00
5500;BME280;2772;42.700;23.304;2023-05-21T03:20:27;94845.03;;;14.55;100.00
5500;BME280;2772;42.700;23.304;2023-05-21T03:22:54;94836.28;;;14.70;100.00
5500;BME280;2772;42.700;23.304;2023-05-21T03:25:20;94841.88;;;14.77;100.00
5500;BME280;2772;42.700;23.304;2023-05-21T03:27:49;94840.97;;;14.73;100.00
5500;BME280;2772;42.700;23.304;2023-05-21T03:30:16;94836.53;;;14.77;100.00
5500;BME280;2772;42.700;23.304;2023-05-21T03:32:43;94839.50;;;14.87;100.00
5500;BME280;2772;42.700;23.304;2023-05-21T03:35:10;94847.72;;;14.94;100.00
5500;BME280;2772;42.700;23.304;2023-05-21T03:37:38;94846.28;;;14.97;100.00
5500;BME280;2772;42.700;23.304;2023-05-21T03:40:06;94848.44;;;14.79;100.00
5500;BME280;2772;42.700;23.304;2023-05-21T03:42:33;94848.88;;;14.93;100.00
5500;BME280;2772;42.700;23.304;2023-05-21T03:45:00;94841.63;;;14.82;100.00
5500;BME280;2772;42.700;23.304;2023-05-21T03:47:27;94845.19;;;14.86;100.00
5500;BME280;2772;42.700;23.304;2023-05-21T03:49:53;94851.00;;;14.88;100.00
5500;BME280;2772;42.700;23.304;2023-05-21T03:52:20;94851.38;;;14.74;100.00
5500;BME280;2772;42.700;23.304;2023-05-21T03:54:48;94845.41;;;14.93;100.00
5500;BME280;2772;42.700;23.304;2023-05-21T03:57:15;94845.50;;;14.96;100.00
5500;BME280;2772;42.700;23.304;2023-05-21T03:59:42;94843.84;;;14.92;100.00
5500;BME280;2772;42.700;23.304;2023-05-21T04:02:08;94845.88;;;14.83;100.00
5500;BME280;2772;42.700;23.304;2023-05-21T04:04:35;94841.97;;;14.80;100.00
5500;BME280;2772;42.700;23.304;2023-05-21T04:07:02;94837.38;;;14.81;100.00
5500;BME280;2772;42.700;23.304;2023-05-21T04:09:29;94848.25;;;14.72;100.00
5500;BME280;2772;42.700;23.304;2023-05-21T04:11:58;94844.97;;;14.79;100.00
5500;BME280;2772;42.700;23.304;2023-05-21T04:14:24;94838.13;;;14.93;100.00
5500;BME280;2772;42.700;23.304;2023-05-21T04:16:51;94837.59;;;14.88;100.00
5500;BME280;2772;42.700;23.304;2023-05-21T04:19:18;94835.00;;;15.03;100.00
5500;BME280;2772;42.700;23.304;2023-05-21T04:21:44;94832.25;;;15.15;100.00
5500;BME280;2772;42.700;23.304;2023-05-21T04:24:11;94831.09;;;15.28;100.00
5500;BME280;2772;42.700;23.304;2023-05-21T04:26:38;94838.31;;;15.12;100.00
5500;BME280;2772;42.700;23.304;2023-05-21T04:29:08;94833.69;;;15.13;100.00
5500;BME280;2772;42.700;23.304;2023-05-21T04:31:36;94836.66;;;15.08;100.00
5500;BME280;2772;42.700;23.304;2023-05-21T04:34:03;94839.91;;;15.01;100.00
5500;BME280;2772;42.700;23.304;2023-05-21T04:36:30;94842.75;;;15.20;100.00
5500;BME280;2772;42.700;23.304;2023-05-21T04:38:58;94845.44;;;15.20;100.00
5500;BME280;2772;42.700;23.304;2023-05-21T04:41:24;94846.00;;;15.14;100.00
5500;BME280;2772;42.700;23.304;2023-05-21T04:43:51;94848.00;;;15.17;100.00
5500;BME280;2772;42.700;23.304;2023-05-21T04:46:20;94843.69;;;15.12;100.00
5500;BME280;2772;42.700;23.304;2023-05-21T04:48:51;94848.94;;;15.36;100.00
5500;BME280;2772;42.700;23.304;2023-05-21T04:51:19;94848.13;;;15.48;100.00
5500;BME280;2772;42.700;23.304;2023-05-21T04:53:46;94844.53;;;15.56;100.00
5500;BME280;2772;42.700;23.304;2023-05-21T04:56:15;94852.84;;;15.66;100.00
5500;BME280;2772;42.700;23.304;2023-05-21T04:58:42;94850.50;;;15.65;100.00
5500;BME280;2772;42.700;23.304;2023-05-21T05:01:10;94854.44;;;15.83;100.00
5500;BME280;2772;42.700;23.304;2023-05-21T05:03:38;94853.75;;;15.86;100.00
5500;BME280;2772;42.700;23.304;2023-05-21T05:06:05;94857.81;;;15.96;100.00
5500;BME280;2772;42.700;23.304;2023-05-21T05:08:32;94864.06;;;16.15;100.00
5500;BME280;2772;42.700;23.304;2023-05-21T05:10:59;94866.56;;;16.24;100.00
5500;BME280;2772;42.700;23.304;2023-05-21T05:13:26;94861.47;;;16.34;100.00
5500;BME280;2772;42.700;23.304;2023-05-21T05:15:53;94860.25;;;16.47;100.00
5500;BME280;2772;42.700;23.304;2023-05-21T05:18:21;94872.75;;;16.55;100.00
5500;BME280;2772;42.700;23.304;2023-05-21T05:20:50;94873.78;;;16.66;100.00
5500;BME280;2772;42.700;23.304;2023-05-21T05:23:16;94865.75;;;16.85;100.00
5500;BME280;2772;42.700;23.304;2023-05-21T05:25:43;94871.25;;;17.08;100.00
5500;BME280;2772;42.700;23.304;2023-05-21T05:28:10;94880.13;;;17.27;100.00
5500;BME280;2772;42.700;23.304;2023-05-21T05:30:37;94881.38;;;17.33;100.00
5500;BME280;2772;42.700;23.304;2023-05-21T05:33:04;94882.13;;;17.50;100.00
5500;BME280;2772;42.700;23.304;2023-05-21T05:35:30;94887.28;;;17.58;100.00
5500;BME280;2772;42.700;23.304;2023-05-21T05:37:59;94889.41;;;17.68;100.00
5500;BME280;2772;42.700;23.304;2023-05-21T05:40:25;94878.03;;;17.97;100.00
5500;BME280;2772;42.700;23.304;2023-05-21T05:42:52;94877.19;;;18.16;100.00
5500;BME280;2772;42.700;23.304;2023-05-21T05:45:19;94888.66;;;18.09;100.00
5500;BME280;2772;42.700;23.304;2023-05-21T05:47:46;94889.97;;;18.19;100.00
5500;BME280;2772;42.700;23.304;2023-05-21T05:50:13;94894.75;;;18.29;100.00
5500;BME280;2772;42.700;23.304;2023-05-21T05:52:39;94889.72;;;18.27;100.00
5500;BME280;2772;42.700;23.304;2023-05-21T05:55:08;94874.09;;;18.36;100.00
5500;BME280;2772;42.700;23.304;2023-05-21T05:57:36;94881.25;;;18.48;100.00
5500;BME280;2772;42.700;23.304;2023-05-21T06:00:04;94885.66;;;18.59;100.00
5500;BME280;2772;42.700;23.304;2023-05-21T06:02:31;94891.22;;;18.70;100.00
5500;BME280;2772;42.700;23.304;2023-05-21T06:04:58;94887.22;;;18.86;100.00
5500;BME280;2772;42.700;23.304;2023-05-21T06:07:25;94899.47;;;19.07;100.00
5500;BME280;2772;42.700;23.304;2023-05-21T06:09:51;94901.69;;;19.27;100.00
5500;BME280;2772;42.700;23.304;2023-05-21T06:12:19;94893.38;;;19.39;100.00
5500;BME280;2772;42.700;23.304;2023-05-21T06:14:46;94892.56;;;19.35;100.00
5500;BME280;2772;42.700;23.304;2023-05-21T06:17:13;94901.97;;;19.45;100.00
5500;BME280;2772;42.700;23.304;2023-05-21T06:19:40;94903.44;;;19.39;100.00
5500;BME280;2772;42.700;23.304;2023-05-21T06:22:07;94903.50;;;19.46;100.00
5500;BME280;2772;42.700;23.304;2023-05-21T06:24:34;94897.84;;;19.54;100.00
5500;BME280;2772;42.700;23.304;2023-05-21T06:27:00;94900.53;;;19.54;100.00
5500;BME280;2772;42.700;23.304;2023-05-21T06:29:29;94898.66;;;19.58;100.00
5500;BME280;2772;42.700;23.304;2023-05-21T06:31:56;94903.63;;;19.56;100.00
5500;BME280;2772;42.700;23.304;2023-05-21T06:34:23;94909.03;;;19.56;100.00
5500;BME280;2772;42.700;23.304;2023-05-21T06:36:50;94908.22;;;19.52;100.00
5500;BME280;2772;42.700;23.304;2023-05-21T06:39:17;94903.63;;;19.56;100.00
5500;BME280;2772;42.700;23.304;2023-05-21T06:41:44;94905.25;;;19.61;100.00
5500;BME280;2772;42.700;23.304;2023-05-21T06:44:10;94897.38;;;19.49;100.00
5500;BME280;2772;42.700;23.304;2023-05-21T06:46:39;94892.13;;;19.59;100.00
5500;BME280;2772;42.700;23.304;2023-05-21T06:49:05;94901.28;;;19.51;100.00
5500;BME280;2772;42.700;23.304;2023-05-21T06:51:32;94898.22;;;19.56;100.00
5500;BME280;2772;42.700;23.304;2023-05-21T06:53:59;94895.19;;;19.58;100.00
5500;BME280;2772;42.700;23.304;2023-05-21T06:56:26;94889.84;;;19.65;100.00
5500;BME280;2772;42.700;23.304;2023-05-21T06:58:52;94901.03;;;19.63;100.00
5500;BME280;2772;42.700;23.304;2023-05-21T07:01:19;94898.13;;;19.79;100.00
5500;BME280;2772;42.700;23.304;2023-05-21T07:03:48;94902.56;;;19.97;100.00
5500;BME280;2772;42.700;23.304;2023-05-21T07:06:15;94889.69;;;19.84;100.00
5500;BME280;2772;42.700;23.304;2023-05-21T07:08:42;94895.47;;;19.82;100.00
5500;BME280;2772;42.700;23.304;2023-05-21T07:11:09;94890.22;;;19.96;100.00
5500;BME280;2772;42.700;23.304;2023-05-21T07:13:36;94886.19;;;20.16;100.00
5500;BME280;2772;42.700;23.304;2023-05-21T07:16:02;94889.75;;;20.24;100.00
5500;BME280;2772;42.700;23.304;2023-05-21T07:18:30;94893.28;;;20.31;100.00
5500;BME280;2772;42.700;23.304;2023-05-21T07:20:58;94886.28;;;20.27;100.00
5500;BME280;2772;42.700;23.304;2023-05-21T07:23:24;94896.72;;;20.28;100.00
5500;BME280;2772;42.700;23.304;2023-05-21T07:25:51;94888.94;;;20.23;100.00
5500;BME280;2772;42.700;23.304;2023-05-21T07:28:18;94896.72;;;20.28;100.00
5500;BME280;2772;42.700;23.304;2023-05-21T07:30:45;94892.91;;;20.33;100.00
5500;BME280;2772;42.700;23.304;2023-05-21T07:33:12;94898.63;;;20.24;100.00
5500;BME280;2772;42.700;23.304;2023-05-21T07:35:39;94899.81;;;20.27;100.00
5500;BME280;2772;42.700;23.304;2023-05-21T07:38:07;94900.56;;;20.24;100.00
5500;BME280;2772;42.700;23.304;2023-05-21T07:40:34;94889.31;;;20.22;100.00
5500;BME280;2772;42.700;23.304;2023-05-21T07:43:01;94889.31;;;20.18;100.00
5500;BME280;2772;42.700;23.304;2023-05-21T07:45:27;94896.78;;;20.32;100.00
5500;BME280;2772;42.700;23.304;2023-05-21T07:47:54;94887.94;;;20.38;100.00
5500;BME280;2772;42.700;23.304;2023-05-21T07:50:21;94891.91;;;20.52;100.00
5500;BME280;2772;42.700;23.304;2023-05-21T07:52:48;94893.22;;;20.68;100.00
5500;BME280;2772;42.700;23.304;2023-05-21T07:55:16;94888.22;;;20.74;100.00
5500;BME280;2772;42.700;23.304;2023-05-21T07:57:43;94884.81;;;20.84;100.00
5500;BME280;2772;42.700;23.304;2023-05-21T08:00:11;94876.44;;;20.99;100.00
5500;BME280;2772;42.700;23.304;2023-05-21T08:02:39;94881.22;;;21.23;100.00
5500;BME280;2772;42.700;23.304;2023-05-21T08:05:06;94890.19;;;21.31;100.00
5500;BME280;2772;42.700;23.304;2023-05-21T08:07:33;94883.28;;;21.47;100.00
5500;BME280;2772;42.700;23.304;2023-05-21T08:10:00;94889.94;;;21.60;100.00
5500;BME280;2772;42.700;23.304;2023-05-21T08:12:28;94895.34;;;21.64;81.56
5500;BME280;2772;42.700;23.304;2023-05-21T08:14:56;94888.38;;;21.56;72.02
5500;BME280;2772;42.700;23.304;2023-05-21T08:17:23;94898.47;;;21.59;71.07
5500;BME280;2772;42.700;23.304;2023-05-21T08:19:50;94893.84;;;21.66;71.13
5500;BME280;2772;42.700;23.304;2023-05-21T08:22:16;94893.00;;;21.55;70.42
5500;BME280;2772;42.700;23.304;2023-05-21T08:24:43;94894.56;;;21.53;68.71
5500;BME280;2772;42.700;23.304;2023-05-21T08:27:10;94889.16;;;21.53;69.72
5500;BME280;2772;42.700;23.304;2023-05-21T08:29:38;94892.97;;;21.45;67.82
5500;BME280;2772;42.700;23.304;2023-05-21T08:32:06;94896.47;;;21.49;69.09
5500;BME280;2772;42.700;23.304;2023-05-21T08:34:34;94892.19;;;21.51;68.05
5500;BME280;2772;42.700;23.304;2023-05-21T08:37:01;94892.28;;;21.62;67.64
5500;BME280;2772;42.700;23.304;2023-05-21T08:39:27;94892.25;;;21.65;67.83
5500;BME280;2772;42.700;23.304;2023-05-21T08:41:58;94898.47;;;21.66;66.97
5500;BME280;2772;42.700;23.304;2023-05-21T08:44:29;94896.13;;;21.61;65.88
5500;BME280;2772;42.700;23.304;2023-05-21T08:47:01;94888.44;;;21.70;64.89
5500;BME280;2772;42.700;23.304;2023-05-21T08:49:33;94899.72;;;21.79;63.65
5500;BME280;2772;42.700;23.304;2023-05-21T08:52:00;94903.28;;;21.93;63.88
5500;BME280;2772;42.700;23.304;2023-05-21T08:54:28;94885.81;;;21.84;64.17
5500;BME280;2772;42.700;23.304;2023-05-21T08:56:55;94876.88;;;21.90;65.29
5500;BME280;2772;42.700;23.304;2023-05-21T08:59:23;94881.59;;;22.04;64.72
5500;BME280;2772;42.700;23.304;2023-05-21T09:01:50;94877.72;;;22.09;63.84
5500;BME280;2772;42.700;23.304;2023-05-21T09:04:19;94882.75;;;22.00;64.19
5500;BME280;2772;42.700;23.304;2023-05-21T09:06:46;94887.72;;;21.83;64.97
5500;BME280;2772;42.700;23.304;2023-05-21T09:09:16;94883.47;;;21.82;65.96
5500;BME280;2772;42.700;23.304;2023-05-21T09:11:46;94885.84;;;21.94;67.03
5500;BME280;2772;42.700;23.304;2023-05-21T09:14:13;94876.94;;;22.08;66.95
5500;BME280;2772;42.700;23.304;2023-05-21T09:16:41;94887.84;;;22.26;67.42
5500;BME280;2772;42.700;23.304;2023-05-21T09:19:07;94881.66;;;22.36;67.40
5500;BME280;2772;42.700;23.304;2023-05-21T09:21:38;94882.44;;;22.40;68.86
5500;BME280;2772;42.700;23.304;2023-05-21T09:24:05;94879.38;;;22.55;68.51
5500;BME280;2772;42.700;23.304;2023-05-21T09:26:34;94888.28;;;22.56;66.75
5500;BME280;2772;42.700;23.304;2023-05-21T09:29:02;94877.81;;;22.68;65.84
5500;BME280;2772;42.700;23.304;2023-05-21T09:31:28;94883.22;;;22.86;67.28
5500;BME280;2772;42.700;23.304;2023-05-21T09:36:23;94873.53;;;22.95;70.54
5500;BME280;2772;42.700;23.304;2023-05-21T09:38:51;94872.34;;;23.03;64.63
5500;BME280;2772;42.700;23.304;2023-05-21T09:41:19;94878.97;;;23.06;63.27
5500;BME280;2772;42.700;23.304;2023-05-21T09:43:47;94870.03;;;22.98;58.07
5500;BME280;2772;42.700;23.304;2023-05-21T09:46:14;94869.66;;;22.89;58.32
5500;BME280;2772;42.700;23.304;2023-05-21T09:48:42;94876.25;;;22.92;60.79
5500;BME280;2772;42.700;23.304;2023-05-21T09:51:10;94870.81;;;22.99;60.47
5500;BME280;2772;42.700;23.304;2023-05-21T09:53:54;94873.94;;;22.80;58.57
5500;BME280;2772;42.700;23.304;2023-05-21T09:56:23;94870.06;;;22.81;59.04
5500;BME280;2772;42.700;23.304;2023-05-21T09:58:51;94863.81;;;22.87;59.89
5500;BME280;2772;42.700;23.304;2023-05-21T10:01:19;94861.09;;;23.01;61.89
5500;BME280;2772;42.700;23.304;2023-05-21T10:03:49;94861.47;;;23.03;59.20
5500;BME280;2772;42.700;23.304;2023-05-21T10:06:17;94854.47;;;23.20;59.84
5500;BME280;2772;42.700;23.304;2023-05-21T10:08:47;94852.91;;;23.15;58.61
5500;BME280;2772;42.700;23.304;2023-05-21T10:11:21;94861.06;;;23.19;60.00
5500;BME280;2772;42.700;23.304;2023-05-21T10:13:52;94849.44;;;23.04;60.47
5500;BME280;2772;42.700;23.304;2023-05-21T10:16:21;94860.72;;;22.99;59.73
5500;BME280;2772;42.700;23.304;2023-05-21T10:18:48;94859.94;;;23.02;57.66
5500;BME280;2772;42.700;23.304;2023-05-21T10:21:18;94845.53;;;23.16;58.62
5500;BME280;2772;42.700;23.304;2023-05-21T10:23:47;94843.22;;;23.14;56.98
5500;BME280;2772;42.700;23.304;2023-05-21T10:26:14;94849.47;;;22.97;57.75
5500;BME280;2772;42.700;23.304;2023-05-21T10:28:43;94846.75;;;22.90;59.17
5500;BME280;2772;42.700;23.304;2023-05-21T10:31:10;94848.72;;;22.79;59.63
5500;BME280;2772;42.700;23.304;2023-05-21T10:33:37;94854.13;;;22.83;60.29
5500;BME280;2772;42.700;23.304;2023-05-21T10:36:04;94853.75;;;22.84;59.54
5500;BME280;2772;42.700;23.304;2023-05-21T10:38:32;94845.19;;;23.00;59.41
5500;BME280;2772;42.700;23.304;2023-05-21T10:41:00;94840.88;;;23.16;59.35
5500;BME280;2772;42.700;23.304;2023-05-21T10:43:46;94838.91;;;23.34;57.76
5500;BME280;2772;42.700;23.304;2023-05-21T10:49:50;94838.91;;;23.24;59.15
5500;BME280;2772;42.700;23.304;2023-05-21T10:52:43;94846.72;;;23.04;60.18
5500;BME280;2772;42.700;23.304;2023-05-21T10:55:35;94835.47;;;22.95;60.42
5500;BME280;2772;42.700;23.304;2023-05-21T11:01:04;94842.84;;;23.02;62.36
5500;BME280;2772;42.700;23.304;2023-05-21T11:03:32;94837.03;;;23.10;61.97
5500;BME280;2772;42.700;23.304;2023-05-21T11:06:01;94846.31;;;23.13;60.45
5500;BME280;2772;42.700;23.304;2023-05-21T11:08:30;94837.38;;;23.12;61.63
5500;BME280;2772;42.700;23.304;2023-05-21T11:11:00;94837.81;;;23.07;61.74
5500;BME280;2772;42.700;23.304;2023-05-21T11:13:28;94838.97;;;22.92;63.97
5500;BME280;2772;42.700;23.304;2023-05-21T11:16:12;94845.22;;;22.82;64.84
5500;BME280;2772;42.700;23.304;2023-05-21T11:18:58;94832.81;;;22.60;64.17
5500;BME280;2772;42.700;23.304;2023-05-21T11:21:28;94832.81;;;22.67;63.80
5500;BME280;2772;42.700;23.304;2023-05-21T11:23:59;94830.09;;;22.74;64.62
5500;BME280;2772;42.700;23.304;2023-05-21T11:26:59;94835.91;;;22.76;65.60
5500;BME280;2772;42.700;23.304;2023-05-21T11:29:42;94813.03;;;22.81;66.85
5500;BME280;2772;42.700;23.304;2023-05-21T11:32:12;94818.03;;;22.96;66.85
5500;BME280;2772;42.700;23.304;2023-05-21T11:34:45;94813.75;;;23.02;65.03
5500;BME280;2772;42.700;23.304;2023-05-21T11:37:30;94810.25;;;23.05;65.77
5500;BME280;2772;42.700;23.304;2023-05-21T11:40:16;94819.59;;;22.83;66.01
5500;BME280;2772;42.700;23.304;2023-05-21T11:42:48;94811.84;;;22.78;66.92
5500;BME280;2772;42.700;23.304;2023-05-21T11:45:16;94811.84;;;22.78;66.56
5500;BME280;2772;42.700;23.304;2023-05-21T11:47:45;94819.22;;;22.81;65.01
5500;BME280;2772;42.700;23.304;2023-05-21T11:50:12;94812.22;;;22.73;66.19
5500;BME280;2772;42.700;23.304;2023-05-21T11:52:40;94815.72;;;22.84;65.95
5500;BME280;2772;42.700;23.304;2023-05-21T11:55:07;94804.84;;;22.88;65.63
5500;BME280;2772;42.700;23.304;2023-05-21T11:57:36;94805.25;;;22.79;66.21
5500;BME280;2772;42.700;23.304;2023-05-21T12:00:04;94792.47;;;22.69;66.90
5500;BME280;2772;42.700;23.304;2023-05-21T12:02:38;94797.13;;;22.58;69.30
5500;BME280;2772;42.700;23.304;2023-05-21T12:05:07;94808.38;;;22.46;69.94
5500;BME280;2772;42.700;23.304;2023-05-21T12:07:34;94808.00;;;22.51;70.17
5500;BME280;2772;42.700;23.304;2023-05-21T12:10:00;94806.03;;;22.41;67.95
5500;BME280;2772;42.700;23.304;2023-05-21T12:12:28;94801.00;;;22.36;70.43
5500;BME280;2772;42.700;23.304;2023-05-21T12:14:57;94804.47;;;22.33;74.01
5500;BME280;2772;42.700;23.304;2023-05-21T12:17:25;94795.56;;;22.29;72.46
5500;BME280;2772;42.700;23.304;2023-05-21T12:19:53;94795.16;;;22.13;73.09
5500;BME280;2772;42.700;23.304;2023-05-21T12:22:22;94809.13;;;22.01;75.67
5500;BME280;2772;42.700;23.304;2023-05-21T12:24:50;94794.78;;;21.93;76.76
5500;BME280;2772;42.700;23.304;2023-05-21T12:27:18;94802.53;;;21.95;77.58
5500;BME280;2772;42.700;23.304;2023-05-21T12:29:49;94799.81;;;21.91;77.57
5500;BME280;2772;42.700;23.304;2023-05-21T12:32:16;94788.56;;;22.00;77.02
5500;BME280;2772;42.700;23.304;2023-05-21T12:34:44;94786.25;;;22.02;77.22
5500;BME280;2772;42.700;23.304;2023-05-21T12:37:14;94784.69;;;22.08;76.42
5500;BME280;2772;42.700;23.304;2023-05-21T12:39:44;94780.06;;;22.09;75.47
5500;BME280;2772;42.700;23.304;2023-05-21T12:42:11;94783.16;;;22.14;74.25
5500;BME280;2772;42.700;23.304;2023-05-21T12:44:38;94782.00;;;22.15;74.38
5500;BME280;2772;42.700;23.304;2023-05-21T12:47:07;94786.28;;;22.23;73.29
5500;BME280;2772;42.700;23.304;2023-05-21T12:49:35;94779.28;;;22.22;72.20
5500;BME280;2772;42.700;23.304;2023-05-21T12:52:04;94787.03;;;22.27;72.24
5500;BME280;2772;42.700;23.304;2023-05-21T12:54:36;94786.63;;;22.25;72.29
5500;BME280;2772;42.700;23.304;2023-05-21T12:57:10;94782.00;;;22.29;72.27
5500;BME280;2772;42.700;23.304;2023-05-21T12:59:52;94781.22;;;22.22;73.58
5500;BME280;2772;42.700;23.304;2023-05-21T13:02:22;94785.88;;;22.11;77.48
5500;BME280;2772;42.700;23.304;2023-05-21T13:04:54;94782.38;;;21.96;79.14
5500;BME280;2772;42.700;23.304;2023-05-21T13:07:22;94778.50;;;21.90;80.04
5500;BME280;2772;42.700;23.304;2023-05-21T13:09:48;94775.00;;;21.89;81.77
5500;BME280;2772;42.700;23.304;2023-05-21T13:12:19;94777.31;;;21.87;83.28
5500;BME280;2772;42.700;23.304;2023-05-21T13:14:47;94772.28;;;21.79;85.94
5500;BME280;2772;42.700;23.304;2023-05-21T13:17:14;94773.44;;;21.81;88.44
5500;BME280;2772;42.700;23.304;2023-05-21T13:19:41;94779.25;;;21.80;86.21